sensor_id;sensor_type;location;lat;lon;timestamp;P1;durP1;ratioP1;P2;durP2;ratioP2
53269;SDS011;39159;45.634;9.420;2023-02-10T00:00:46;51.58;;;23.08;;
53269;SDS011;39159;45.634;9.420;2023-02-10T00:03:12;50.17;;;22.25;;
53269;SDS011;39159;45.634;9.420;2023-02-10T00:05:37;46.58;;;23.15;;
53269;SDS011;39159;45.634;9.420;2023-02-10T00:08:03;49.60;;;23.02;;
53269;SDS011;39159;45.634;9.420;2023-02-10T00:10:28;49.25;;;21.58;;
53269;SDS011;39159;45.634;9.420;2023-02-10T00:12:54;44.90;;;22.88;;
53269;SDS011;39159;45.634;9.420;2023-02-10T00:15:19;52.42;;;21.58;;
53269;SDS011;39159;45.634;9.420;2023-02-10T00:17:45;56.33;;;22.98;;
53269;SDS011;39159;45.634;9.420;2023-02-10T00:20:10;45.92;;;21.08;;
53269;SDS011;39159;45.634;9.420;2023-02-10T00:22:36;47.67;;;23.00;;
53269;SDS011;39159;45.634;9.420;2023-02-10T00:25:01;50.10;;;22.02;;
53269;SDS011;39159;45.634;9.420;2023-02-10T00:27:26;53.15;;;22.65;;
53269;SDS011;39159;45.634;9.420;2023-02-10T00:29:52;52.80;;;22.83;;
53269;SDS011;39159;45.634;9.420;2023-02-10T00:32:17;50.97;;;23.40;;
53269;SDS011;39159;45.634;9.420;2023-02-10T00:34:44;47.60;;;21.90;;
53269;SDS011;39159;45.634;9.420;2023-02-10T00:37:10;52.70;;;23.55;;
53269;SDS011;39159;45.634;9.420;2023-02-10T00:39:35;50.60;;;22.15;;
53269;SDS011;39159;45.634;9.420;2023-02-10T00:42:00;47.83;;;22.77;;
53269;SDS011;39159;45.634;9.420;2023-02-10T00:44:26;48.30;;;22.58;;
53269;SDS011;39159;45.634;9.420;2023-02-10T00:46:51;50.63;;;21.38;;
53269;SDS011;39159;45.634;9.420;2023-02-10T00:49:17;46.75;;;21.30;;
53269;SDS011;39159;45.634;9.420;2023-02-10T00:51:42;42.90;;;20.80;;
53269;SDS011;39159;45.634;9.420;2023-02-10T00:54:08;51.83;;;22.70;;
53269;SDS011;39159;45.634;9.420;2023-02-10T00:56:35;54.17;;;21.92;;
53269;SDS011;39159;45.634;9.420;2023-02-10T00:59:01;49.42;;;21.95;;
53269;SDS011;39159;45.634;9.420;2023-02-10T01:01:26;49.28;;;22.25;;
53269;SDS011;39159;45.634;9.420;2023-02-10T01:03:52;51.15;;;22.52;;
53269;SDS011;39159;45.634;9.420;2023-02-10T01:06:17;49.47;;;21.83;;
53269;SDS011;39159;45.634;9.420;2023-02-10T01:08:43;47.78;;;21.73;;
53269;SDS011;39159;45.634;9.420;2023-02-10T01:11:09;54.38;;;22.60;;
53269;SDS011;39159;45.634;9.420;2023-02-10T01:13:36;45.75;;;21.15;;
53269;SDS011;39159;45.634;9.420;2023-02-10T01:16:06;76.28;;;23.17;;
53269;SDS011;39159;45.634;9.420;2023-02-10T01:18:40;48.17;;;21.75;;
53269;SDS011;39159;45.634;9.420;2023-02-10T01:21:07;46.58;;;22.15;;
53269;SDS011;39159;45.634;9.420;2023-02-10T01:23:37;46.60;;;21.03;;
53269;SDS011;39159;45.634;9.420;2023-02-10T01:26:03;46.28;;;21.08;;
53269;SDS011;39159;45.634;9.420;2023-02-10T01:28:29;50.58;;;20.83;;
53269;SDS011;39159;45.634;9.420;2023-02-10T01:30:54;46.33;;;22.27;;
53269;SDS011;39159;45.634;9.420;2023-02-10T01:33:20;47.40;;;20.50;;
53269;SDS011;39159;45.634;9.420;2023-02-10T01:35:45;43.92;;;21.42;;
53269;SDS011;39159;45.634;9.420;2023-02-10T01:38:11;48.58;;;21.95;;
53269;SDS011;39159;45.634;9.420;2023-02-10T01:40:36;44.92;;;21.42;;
53269;SDS011;39159;45.634;9.420;2023-02-10T01:43:02;48.55;;;21.58;;
53269;SDS011;39159;45.634;9.420;2023-02-10T01:48:00;47.97;;;19.65;;
53269;SDS011;39159;45.634;9.420;2023-02-10T01:50:29;45.67;;;19.35;;
53269;SDS011;39159;45.634;9.420;2023-02-10T01:52:57;48.97;;;21.65;;
53269;SDS011;39159;45.634;9.420;2023-02-10T01:55:25;45.33;;;19.08;;
53269;SDS011;39159;45.634;9.420;2023-02-10T01:57:54;45.42;;;18.75;;
53269;SDS011;39159;45.634;9.420;2023-02-10T02:00:21;45.22;;;18.98;;
53269;SDS011;39159;45.634;9.420;2023-02-10T02:02:49;43.40;;;19.42;;
53269;SDS011;39159;45.634;9.420;2023-02-10T02:05:22;42.22;;;19.33;;
53269;SDS011;39159;45.634;9.420;2023-02-10T02:07:54;43.72;;;19.65;;
53269;SDS011;39159;45.634;9.420;2023-02-10T02:10:26;46.45;;;19.60;;
53269;SDS011;39159;45.634;9.420;2023-02-10T02:13:05;38.92;;;17.67;;
53269;SDS011;39159;45.634;9.420;2023-02-10T02:15:41;43.42;;;18.63;;
53269;SDS011;39159;45.634;9.420;2023-02-10T02:18:21;40.72;;;17.92;;
53269;SDS011;39159;45.634;9.420;2023-02-10T02:29:24;39.92;;;18.55;;
53269;SDS011;39159;45.634;9.420;2023-02-10T02:32:23;42.92;;;18.05;;
53269;SDS011;39159;45.634;9.420;2023-02-10T02:34:55;39.08;;;18.73;;
53269;SDS011;39159;45.634;9.420;2023-02-10T02:37:35;45.83;;;18.95;;
53269;SDS011;39159;45.634;9.420;2023-02-10T02:40:04;43.85;;;18.48;;
53269;SDS011;39159;45.634;9.420;2023-02-10T02:42:31;46.10;;;19.17;;
53269;SDS011;39159;45.634;9.420;2023-02-10T02:52:48;38.80;;;18.20;;
53269;SDS011;39159;45.634;9.420;2023-02-10T02:55:31;43.97;;;20.08;;
53269;SDS011;39159;45.634;9.420;2023-02-10T02:58:11;38.30;;;18.45;;
53269;SDS011;39159;45.634;9.420;2023-02-10T03:00:39;40.03;;;17.08;;
53269;SDS011;39159;45.634;9.420;2023-02-10T03:03:06;42.60;;;17.80;;
53269;SDS011;39159;45.634;9.420;2023-02-10T03:05:33;40.28;;;17.13;;
53269;SDS011;39159;45.634;9.420;2023-02-10T03:07:59;38.80;;;18.83;;
53269;SDS011;39159;45.634;9.420;2023-02-10T03:10:25;35.72;;;17.58;;
53269;SDS011;39159;45.634;9.420;2023-02-10T03:12:51;44.35;;;19.35;;
53269;SDS011;39159;45.634;9.420;2023-02-10T03:15:17;43.83;;;18.50;;
53269;SDS011;39159;45.634;9.420;2023-02-10T03:17:42;39.88;;;18.35;;
53269;SDS011;39159;45.634;9.420;2023-02-10T03:20:08;37.13;;;17.20;;
53269;SDS011;39159;45.634;9.420;2023-02-10T03:22:34;36.47;;;18.05;;
53269;SDS011;39159;45.634;9.420;2023-02-10T03:24:59;40.08;;;18.05;;
53269;SDS011;39159;45.634;9.420;2023-02-10T03:27:25;36.80;;;16.65;;
53269;SDS011;39159;45.634;9.420;2023-02-10T03:29:50;38.58;;;17.10;;
53269;SDS011;39159;45.634;9.420;2023-02-10T03:32:17;36.03;;;16.27;;
53269;SDS011;39159;45.634;9.420;2023-02-10T03:34:43;44.08;;;17.25;;
53269;SDS011;39159;45.634;9.420;2023-02-10T03:37:09;42.08;;;18.65;;
53269;SDS011;39159;45.634;9.420;2023-02-10T03:39:35;43.28;;;19.27;;
53269;SDS011;39159;45.634;9.420;2023-02-10T03:42:00;36.65;;;17.58;;
53269;SDS011;39159;45.634;9.420;2023-02-10T03:44:25;36.22;;;17.80;;
53269;SDS011;39159;45.634;9.420;2023-02-10T03:46:51;37.35;;;17.85;;
53269;SDS011;39159;45.634;9.420;2023-02-10T03:49:16;45.65;;;18.02;;
53269;SDS011;39159;45.634;9.420;2023-02-10T03:51:42;43.67;;;19.83;;
53269;SDS011;39159;45.634;9.420;2023-02-10T03:54:07;42.25;;;18.80;;
53269;SDS011;39159;45.634;9.420;2023-02-10T03:56:33;44.22;;;18.25;;
53269;SDS011;39159;45.634;9.420;2023-02-10T03:59:02;46.08;;;19.83;;
53269;SDS011;39159;45.634;9.420;2023-02-10T04:01:28;41.40;;;18.65;;
53269;SDS011;39159;45.634;9.420;2023-02-10T04:03:53;41.03;;;17.83;;
53269;SDS011;39159;45.634;9.420;2023-02-10T04:06:19;41.45;;;19.08;;
53269;SDS011;39159;45.634;9.420;2023-02-10T04:08:45;40.70;;;19.70;;
53269;SDS011;39159;45.634;9.420;2023-02-10T04:11:12;35.92;;;18.50;;
53269;SDS011;39159;45.634;9.420;2023-02-10T04:13:38;42.83;;;18.35;;
53269;SDS011;39159;45.634;9.420;2023-02-10T04:16:05;39.97;;;17.55;;
53269;SDS011;39159;45.634;9.420;2023-02-10T04:18:32;35.35;;;16.65;;
53269;SDS011;39159;45.634;9.420;2023-02-10T04:20:58;44.40;;;18.20;;
53269;SDS011;39159;45.634;9.420;2023-02-10T04:23:26;39.72;;;17.77;;
53269;SDS011;39159;45.634;9.420;2023-02-10T04:25:51;41.55;;;16.95;;
53269;SDS011;39159;45.634;9.420;2023-02-10T04:28:16;40.38;;;18.70;;
53269;SDS011;39159;45.634;9.420;2023-02-10T04:30:42;37.42;;;17.55;;
53269;SDS011;39159;45.634;9.420;2023-02-10T04:33:07;40.78;;;18.85;;
53269;SDS011;39159;45.634;9.420;2023-02-10T04:35:33;39.38;;;17.30;;
53269;SDS011;39159;45.634;9.420;2023-02-10T04:37:58;34.03;;;16.02;;
53269;SDS011;39159;45.634;9.420;2023-02-10T04:40:24;41.50;;;17.15;;
53269;SDS011;39159;45.634;9.420;2023-02-10T04:42:49;37.55;;;16.83;;
53269;SDS011;39159;45.634;9.420;2023-02-10T04:45:15;36.22;;;16.63;;
53269;SDS011;39159;45.634;9.420;2023-02-10T04:47:40;37.05;;;16.20;;
53269;SDS011;39159;45.634;9.420;2023-02-10T04:50:06;37.33;;;17.00;;
53269;SDS011;39159;45.634;9.420;2023-02-10T04:52:31;35.13;;;17.00;;
53269;SDS011;39159;45.634;9.420;2023-02-10T04:54:57;35.92;;;17.50;;
53269;SDS011;39159;45.634;9.420;2023-02-10T04:57:22;37.28;;;17.63;;
53269;SDS011;39159;45.634;9.420;2023-02-10T04:59:48;39.42;;;17.10;;
53269;SDS011;39159;45.634;9.420;2023-02-10T05:02:13;34.75;;;16.13;;
53269;SDS011;39159;45.634;9.420;2023-02-10T05:04:39;36.67;;;16.55;;
53269;SDS011;39159;45.634;9.420;2023-02-10T05:07:04;36.70;;;16.85;;
53269;SDS011;39159;45.634;9.420;2023-02-10T05:09:30;40.72;;;17.55;;
53269;SDS011;39159;45.634;9.420;2023-02-10T05:11:55;42.40;;;16.15;;
53269;SDS011;39159;45.634;9.420;2023-02-10T05:14:21;35.92;;;16.27;;
53269;SDS011;39159;45.634;9.420;2023-02-10T05:16:46;36.03;;;15.27;;
53269;SDS011;39159;45.634;9.420;2023-02-10T05:19:11;35.88;;;16.55;;
53269;SDS011;39159;45.634;9.420;2023-02-10T05:21:38;38.13;;;17.13;;
53269;SDS011;39159;45.634;9.420;2023-02-10T05:24:03;38.30;;;17.23;;
53269;SDS011;39159;45.634;9.420;2023-02-10T05:26:29;36.33;;;15.32;;
53269;SDS011;39159;45.634;9.420;2023-02-10T05:28:54;33.63;;;15.52;;
53269;SDS011;39159;45.634;9.420;2023-02-10T05:31:20;36.10;;;17.58;;
53269;SDS011;39159;45.634;9.420;2023-02-10T05:33:45;34.28;;;15.82;;
53269;SDS011;39159;45.634;9.420;2023-02-10T05:36:11;38.63;;;17.40;;
53269;SDS011;39159;45.634;9.420;2023-02-10T05:38:36;37.90;;;17.30;;
53269;SDS011;39159;45.634;9.420;2023-02-10T05:41:02;38.13;;;16.67;;
53269;SDS011;39159;45.634;9.420;2023-02-10T05:43:27;40.55;;;18.80;;
53269;SDS011;39159;45.634;9.420;2023-02-10T05:45:53;41.38;;;18.98;;
53269;SDS011;39159;45.634;9.420;2023-02-10T05:48:18;38.35;;;17.92;;
53269;SDS011;39159;45.634;9.420;2023-02-10T05:50:44;47.90;;;18.80;;
53269;SDS011;39159;45.634;9.420;2023-02-10T05:53:09;37.05;;;18.15;;
53269;SDS011;39159;45.634;9.420;2023-02-10T05:55:35;34.97;;;17.80;;
53269;SDS011;39159;45.634;9.420;2023-02-10T05:58:01;44.53;;;19.15;;
53269;SDS011;39159;45.634;9.420;2023-02-10T06:00:26;33.40;;;16.35;;
53269;SDS011;39159;45.634;9.420;2023-02-10T06:02:52;36.85;;;17.17;;
53269;SDS011;39159;45.634;9.420;2023-02-10T06:05:17;40.53;;;17.92;;
53269;SDS011;39159;45.634;9.420;2023-02-10T06:07:43;41.83;;;18.63;;
53269;SDS011;39159;45.634;9.420;2023-02-10T06:10:08;34.67;;;17.63;;
53269;SDS011;39159;45.634;9.420;2023-02-10T06:12:33;39.10;;;17.65;;
53269;SDS011;39159;45.634;9.420;2023-02-10T06:14:59;38.35;;;18.55;;
53269;SDS011;39159;45.634;9.420;2023-02-10T06:17:24;37.15;;;16.65;;
53269;SDS011;39159;45.634;9.420;2023-02-10T06:19:51;39.67;;;18.17;;
53269;SDS011;39159;45.634;9.420;2023-02-10T06:22:16;39.00;;;17.98;;
53269;SDS011;39159;45.634;9.420;2023-02-10T06:24:42;43.78;;;18.27;;
53269;SDS011;39159;45.634;9.420;2023-02-10T06:27:07;40.08;;;19.58;;
53269;SDS011;39159;45.634;9.420;2023-02-10T06:29:32;40.58;;;18.50;;
53269;SDS011;39159;45.634;9.420;2023-02-10T06:31:58;38.33;;;18.17;;
53269;SDS011;39159;45.634;9.420;2023-02-10T06:34:23;38.67;;;17.75;;
53269;SDS011;39159;45.634;9.420;2023-02-10T06:36:49;38.17;;;18.02;;
53269;SDS011;39159;45.634;9.420;2023-02-10T06:39:14;42.95;;;18.55;;
53269;SDS011;39159;45.634;9.420;2023-02-10T06:41:39;37.08;;;18.23;;
53269;SDS011;39159;45.634;9.420;2023-02-10T06:44:06;52.75;;;19.13;;
53269;SDS011;39159;45.634;9.420;2023-02-10T06:46:31;40.65;;;19.83;;
53269;SDS011;39159;45.634;9.420;2023-02-10T06:48:57;46.15;;;20.13;;
53269;SDS011;39159;45.634;9.420;2023-02-10T06:51:24;47.30;;;18.45;;
53269;SDS011;39159;45.634;9.420;2023-02-10T06:53:50;37.28;;;18.83;;
53269;SDS011;39159;45.634;9.420;2023-02-10T06:56:15;39.00;;;17.17;;
53269;SDS011;39159;45.634;9.420;2023-02-10T06:58:41;34.60;;;16.63;;
53269;SDS011;39159;45.634;9.420;2023-02-10T07:01:10;44.58;;;18.77;;
53269;SDS011;39159;45.634;9.420;2023-02-10T07:03:38;37.58;;;17.67;;
53269;SDS011;39159;45.634;9.420;2023-02-10T07:06:04;46.38;;;18.60;;
53269;SDS011;39159;45.634;9.420;2023-02-10T07:08:29;41.72;;;17.88;;
53269;SDS011;39159;45.634;9.420;2023-02-10T07:10:55;38.22;;;18.67;;
53269;SDS011;39159;45.634;9.420;2023-02-10T07:13:20;38.88;;;18.30;;
53269;SDS011;39159;45.634;9.420;2023-02-10T07:15:46;42.92;;;19.30;;
53269;SDS011;39159;45.634;9.420;2023-02-10T07:18:11;41.85;;;19.02;;
53269;SDS011;39159;45.634;9.420;2023-02-10T07:20:37;33.38;;;17.38;;
53269;SDS011;39159;45.634;9.420;2023-02-10T07:23:02;39.13;;;18.58;;
53269;SDS011;39159;45.634;9.420;2023-02-10T07:25:28;41.40;;;20.35;;
53269;SDS011;39159;45.634;9.420;2023-02-10T07:27:53;44.60;;;20.88;;
53269;SDS011;39159;45.634;9.420;2023-02-10T07:30:19;56.28;;;24.50;;
53269;SDS011;39159;45.634;9.420;2023-02-10T07:32:44;46.70;;;22.70;;
53269;SDS011;39159;45.634;9.420;2023-02-10T07:35:10;47.25;;;22.73;;
53269;SDS011;39159;45.634;9.420;2023-02-10T07:37:36;41.63;;;20.20;;
53269;SDS011;39159;45.634;9.420;2023-02-10T07:40:03;47.92;;;21.77;;
53269;SDS011;39159;45.634;9.420;2023-02-10T07:42:29;51.80;;;23.20;;
53269;SDS011;39159;45.634;9.420;2023-02-10T07:44:54;46.00;;;22.00;;
53269;SDS011;39159;45.634;9.420;2023-02-10T07:47:19;53.20;;;23.08;;
53269;SDS011;39159;45.634;9.420;2023-02-10T07:49:45;54.85;;;24.13;;
53269;SDS011;39159;45.634;9.420;2023-02-10T07:52:10;45.70;;;21.98;;
53269;SDS011;39159;45.634;9.420;2023-02-10T07:54:36;43.88;;;21.92;;
53269;SDS011;39159;45.634;9.420;2023-02-10T07:57:01;46.47;;;23.08;;
53269;SDS011;39159;45.634;9.420;2023-02-10T07:59:27;44.50;;;22.70;;
53269;SDS011;39159;45.634;9.420;2023-02-10T08:01:52;55.63;;;22.48;;
53269;SDS011;39159;45.634;9.420;2023-02-10T08:04:18;52.40;;;24.42;;
53269;SDS011;39159;45.634;9.420;2023-02-10T08:06:43;42.85;;;22.02;;
53269;SDS011;39159;45.634;9.420;2023-02-10T08:09:09;48.47;;;23.35;;
53269;SDS011;39159;45.634;9.420;2023-02-10T08:11:34;53.13;;;25.10;;
53269;SDS011;39159;45.634;9.420;2023-02-10T08:14:00;49.63;;;23.88;;
53269;SDS011;39159;45.634;9.420;2023-02-10T08:16:27;50.83;;;25.10;;
53269;SDS011;39159;45.634;9.420;2023-02-10T08:18:53;50.03;;;23.88;;
53269;SDS011;39159;45.634;9.420;2023-02-10T08:21:18;54.30;;;25.83;;
53269;SDS011;39159;45.634;9.420;2023-02-10T08:23:43;57.47;;;25.90;;
53269;SDS011;39159;45.634;9.420;2023-02-10T08:26:11;52.72;;;27.17;;
53269;SDS011;39159;45.634;9.420;2023-02-10T08:28:37;63.70;;;28.73;;
53269;SDS011;39159;45.634;9.420;2023-02-10T08:31:04;60.17;;;27.65;;
53269;SDS011;39159;45.634;9.420;2023-02-10T08:33:33;54.42;;;27.10;;
53269;SDS011;39159;45.634;9.420;2023-02-10T08:36:07;48.40;;;26.67;;
53269;SDS011;39159;45.634;9.420;2023-02-10T08:38:34;53.33;;;27.30;;
53269;SDS011;39159;45.634;9.420;2023-02-10T08:41:00;50.30;;;27.15;;
53269;SDS011;39159;45.634;9.420;2023-02-10T08:43:26;53.67;;;27.33;;
53269;SDS011;39159;45.634;9.420;2023-02-10T08:45:54;51.15;;;26.02;;
53269;SDS011;39159;45.634;9.420;2023-02-10T08:48:21;47.22;;;25.80;;
53269;SDS011;39159;45.634;9.420;2023-02-10T08:50:47;47.55;;;24.98;;
53269;SDS011;39159;45.634;9.420;2023-02-10T08:53:12;56.90;;;27.17;;
53269;SDS011;39159;45.634;9.420;2023-02-10T08:55:37;53.60;;;26.83;;
53269;SDS011;39159;45.634;9.420;2023-02-10T08:58:03;55.30;;;27.02;;
53269;SDS011;39159;45.634;9.420;2023-02-10T09:00:29;51.72;;;26.27;;
53269;SDS011;39159;45.634;9.420;2023-02-10T09:02:54;53.75;;;25.67;;
53269;SDS011;39159;45.634;9.420;2023-02-10T09:05:20;48.15;;;27.40;;
53269;SDS011;39159;45.634;9.420;2023-02-10T09:07:45;51.28;;;25.70;;
53269;SDS011;39159;45.634;9.420;2023-02-10T09:10:11;52.83;;;27.38;;
53269;SDS011;39159;45.634;9.420;2023-02-10T09:12:38;49.80;;;26.25;;
53269;SDS011;39159;45.634;9.420;2023-02-10T09:15:04;55.92;;;27.90;;
53269;SDS011;39159;45.634;9.420;2023-02-10T09:17:30;53.63;;;28.20;;
53269;SDS011;39159;45.634;9.420;2023-02-10T09:19:56;51.83;;;27.30;;
53269;SDS011;39159;45.634;9.420;2023-02-10T09:22:21;52.78;;;27.58;;
53269;SDS011;39159;45.634;9.420;2023-02-10T09:24:47;50.35;;;27.10;;
53269;SDS011;39159;45.634;9.420;2023-02-10T09:27:17;50.03;;;27.00;;
53269;SDS011;39159;45.634;9.420;2023-02-10T09:29:44;50.70;;;27.30;;
53269;SDS011;39159;45.634;9.420;2023-02-10T09:32:10;53.13;;;28.52;;
53269;SDS011;39159;45.634;9.420;2023-02-10T09:34:36;54.65;;;29.83;;
53269;SDS011;39159;45.634;9.420;2023-02-10T09:37:01;50.78;;;27.75;;
53269;SDS011;39159;45.634;9.420;2023-02-10T09:39:28;52.50;;;27.75;;
53269;SDS011;39159;45.634;9.420;2023-02-10T09:44:55;49.72;;;27.08;;
53269;SDS011;39159;45.634;9.420;2023-02-10T09:48:01;48.63;;;27.77;;
53269;SDS011;39159;45.634;9.420;2023-02-10T09:53:22;49.45;;;26.67;;
53269;SDS011;39159;45.634;9.420;2023-02-10T09:58:35;50.53;;;26.77;;
53269;SDS011;39159;45.634;9.420;2023-02-10T10:03:52;50.10;;;28.17;;
53269;SDS011;39159;45.634;9.420;2023-02-10T10:06:23;47.97;;;28.02;;
53269;SDS011;39159;45.634;9.420;2023-02-10T10:11:40;47.85;;;24.58;;
53269;SDS011;39159;45.634;9.420;2023-02-10T10:33:26;42.55;;;23.38;;
53269;SDS011;39159;45.634;9.420;2023-02-10T10:36:03;36.53;;;22.48;;
53269;SDS011;39159;45.634;9.420;2023-02-10T10:38:32;39.65;;;22.05;;
53269;SDS011;39159;45.634;9.420;2023-02-10T10:41:05;41.47;;;22.75;;
53269;SDS011;39159;45.634;9.420;2023-02-10T10:43:49;37.47;;;21.55;;
53269;SDS011;39159;45.634;9.420;2023-02-10T10:48:48;40.08;;;20.80;;
53269;SDS011;39159;45.634;9.420;2023-02-10T10:51:13;37.65;;;21.67;;
53269;SDS011;39159;45.634;9.420;2023-02-10T10:59:14;37.72;;;20.77;;
53269;SDS011;39159;45.634;9.420;2023-02-10T11:02:12;35.42;;;20.77;;
53269;SDS011;39159;45.634;9.420;2023-02-10T11:04:40;36.90;;;21.40;;
53269;SDS011;39159;45.634;9.420;2023-02-10T11:07:10;41.45;;;22.33;;
53269;SDS011;39159;45.634;9.420;2023-02-10T11:09:53;37.00;;;21.98;;
53269;SDS011;39159;45.634;9.420;2023-02-10T11:14:47;32.50;;;19.52;;
53269;SDS011;39159;45.634;9.420;2023-02-10T11:19:54;41.33;;;22.13;;
53269;SDS011;39159;45.634;9.420;2023-02-10T11:22:25;38.72;;;22.13;;
53269;SDS011;39159;45.634;9.420;2023-02-10T11:24:55;40.75;;;22.27;;
53269;SDS011;39159;45.634;9.420;2023-02-10T11:27:22;37.15;;;20.67;;
53269;SDS011;39159;45.634;9.420;2023-02-10T11:29:53;39.80;;;22.88;;
53269;SDS011;39159;45.634;9.420;2023-02-10T11:34:51;39.03;;;21.90;;
53269;SDS011;39159;45.634;9.420;2023-02-10T11:37:21;40.78;;;22.25;;
53269;SDS011;39159;45.634;9.420;2023-02-10T11:40:27;36.92;;;22.33;;
53269;SDS011;39159;45.634;9.420;2023-02-10T11:42:56;45.50;;;22.58;;
53269;SDS011;39159;45.634;9.420;2023-02-10T11:45:27;40.47;;;22.75;;
53269;SDS011;39159;45.634;9.420;2023-02-10T11:50:29;38.10;;;21.80;;
53269;SDS011;39159;45.634;9.420;2023-02-10T11:52:57;40.00;;;21.65;;
53269;SDS011;39159;45.634;9.420;2023-02-10T11:55:25;38.20;;;20.77;;
53269;SDS011;39159;45.634;9.420;2023-02-10T12:01:15;37.17;;;21.35;;
53269;SDS011;39159;45.634;9.420;2023-02-10T12:11:31;37.55;;;21.02;;
53269;SDS011;39159;45.634;9.420;2023-02-10T12:16:51;31.95;;;19.63;;
53269;SDS011;39159;45.634;9.420;2023-02-10T12:25:16;35.47;;;20.55;;
53269;SDS011;39159;45.634;9.420;2023-02-10T12:28:11;37.13;;;19.77;;
53269;SDS011;39159;45.634;9.420;2023-02-10T12:36:08;37.03;;;21.60;;
53269;SDS011;39159;45.634;9.420;2023-02-10T12:41:19;40.17;;;23.13;;
53269;SDS011;39159;45.634;9.420;2023-02-10T12:49:21;39.05;;;21.80;;
53269;SDS011;39159;45.634;9.420;2023-02-10T12:57:05;37.05;;;21.38;;
53269;SDS011;39159;45.634;9.420;2023-02-10T12:59:37;40.40;;;22.13;;
53269;SDS011;39159;45.634;9.420;2023-02-10T13:02:36;40.00;;;22.20;;
53269;SDS011;39159;45.634;9.420;2023-02-10T13:05:15;46.63;;;22.17;;
53269;SDS011;39159;45.634;9.420;2023-02-10T13:07:49;34.85;;;20.08;;
53269;SDS011;39159;45.634;9.420;2023-02-10T13:10:26;39.75;;;21.58;;
53269;SDS011;39159;45.634;9.420;2023-02-10T13:13:20;39.78;;;21.23;;
53269;SDS011;39159;45.634;9.420;2023-02-10T13:15:51;39.13;;;20.38;;
53269;SDS011;39159;45.634;9.420;2023-02-10T13:18:23;37.88;;;21.77;;
53269;SDS011;39159;45.634;9.420;2023-02-10T13:25:51;36.80;;;20.55;;
53269;SDS011;39159;45.634;9.420;2023-02-10T13:28:51;34.78;;;20.65;;
53269;SDS011;39159;45.634;9.420;2023-02-10T13:34:26;33.67;;;20.02;;
53269;SDS011;39159;45.634;9.420;2023-02-10T13:37:03;36.88;;;21.23;;
53269;SDS011;39159;45.634;9.420;2023-02-10T13:39:32;36.58;;;20.27;;
53269;SDS011;39159;45.634;9.420;2023-02-10T13:42:14;37.20;;;20.70;;
53269;SDS011;39159;45.634;9.420;2023-02-10T13:47:38;34.97;;;19.95;;
53269;SDS011;39159;45.634;9.420;2023-02-10T13:52:48;36.75;;;20.13;;
53269;SDS011;39159;45.634;9.420;2023-02-10T13:57:58;31.80;;;19.17;;
53269;SDS011;39159;45.634;9.420;2023-02-10T14:00:49;34.13;;;19.05;;
53269;SDS011;39159;45.634;9.420;2023-02-10T14:08:51;35.30;;;18.98;;
53269;SDS011;39159;45.634;9.420;2023-02-10T14:13:44;36.83;;;20.25;;
53269;SDS011;39159;45.634;9.420;2023-02-10T14:18:56;32.95;;;19.88;;
53269;SDS011;39159;45.634;9.420;2023-02-10T14:21:24;35.75;;;20.17;;
53269;SDS011;39159;45.634;9.420;2023-02-10T14:23:50;33.90;;;19.95;;
53269;SDS011;39159;45.634;9.420;2023-02-10T14:26:19;34.70;;;19.60;;
53269;SDS011;39159;45.634;9.420;2023-02-10T14:28:50;32.05;;;18.73;;
53269;SDS011;39159;45.634;9.420;2023-02-10T14:31:29;33.28;;;19.25;;
53269;SDS011;39159;45.634;9.420;2023-02-10T14:33:59;34.15;;;19.48;;
53269;SDS011;39159;45.634;9.420;2023-02-10T14:36:26;30.13;;;18.83;;
53269;SDS011;39159;45.634;9.420;2023-02-10T14:38:56;34.92;;;19.80;;
53269;SDS011;39159;45.634;9.420;2023-02-10T14:41:23;33.10;;;19.70;;
53269;SDS011;39159;45.634;9.420;2023-02-10T14:43:51;36.70;;;19.63;;
53269;SDS011;39159;45.634;9.420;2023-02-10T14:46:31;28.60;;;17.90;;
53269;SDS011;39159;45.634;9.420;2023-02-10T14:48:58;34.95;;;18.58;;
53269;SDS011;39159;45.634;9.420;2023-02-10T14:51:37;34.35;;;18.45;;
53269;SDS011;39159;45.634;9.420;2023-02-10T14:54:08;35.63;;;19.48;;
53269;SDS011;39159;45.634;9.420;2023-02-10T14:56:49;32.45;;;18.58;;
53269;SDS011;39159;45.634;9.420;2023-02-10T14:59:26;40.67;;;20.20;;
53269;SDS011;39159;45.634;9.420;2023-02-10T15:01:59;147.55;;;33.00;;
53269;SDS011;39159;45.634;9.420;2023-02-10T15:04:29;62.33;;;25.00;;
53269;SDS011;39159;45.634;9.420;2023-02-10T15:06:55;37.97;;;20.67;;
53269;SDS011;39159;45.634;9.420;2023-02-10T15:09:33;47.90;;;19.45;;
53269;SDS011;39159;45.634;9.420;2023-02-10T15:12:02;36.10;;;19.33;;
53269;SDS011;39159;45.634;9.420;2023-02-10T15:17:42;40.50;;;22.85;;
53269;SDS011;39159;45.634;9.420;2023-02-10T15:30:40;31.88;;;18.80;;
53269;SDS011;39159;45.634;9.420;2023-02-10T15:33:10;36.33;;;18.92;;
53269;SDS011;39159;45.634;9.420;2023-02-10T15:35:53;35.70;;;18.70;;
53269;SDS011;39159;45.634;9.420;2023-02-10T15:38:52;33.10;;;18.08;;
53269;SDS011;39159;45.634;9.420;2023-02-10T15:43:54;32.83;;;18.50;;
53269;SDS011;39159;45.634;9.420;2023-02-10T15:46:21;32.92;;;18.80;;
53269;SDS011;39159;45.634;9.420;2023-02-10T15:48:49;34.10;;;19.30;;
53269;SDS011;39159;45.634;9.420;2023-02-10T15:51:19;36.25;;;19.00;;
53269;SDS011;39159;45.634;9.420;2023-02-10T15:53:53;47.45;;;20.23;;
53269;SDS011;39159;45.634;9.420;2023-02-10T15:56:21;34.13;;;18.35;;
53269;SDS011;39159;45.634;9.420;2023-02-10T15:58:47;52.15;;;21.63;;
53269;SDS011;39159;45.634;9.420;2023-02-10T16:01:13;38.17;;;19.08;;
53269;SDS011;39159;45.634;9.420;2023-02-10T16:03:39;42.05;;;21.13;;
53269;SDS011;39159;45.634;9.420;2023-02-10T16:06:04;62.13;;;25.05;;
53269;SDS011;39159;45.634;9.420;2023-02-10T16:08:30;37.47;;;19.88;;
53269;SDS011;39159;45.634;9.420;2023-02-10T16:10:56;41.20;;;20.42;;
53269;SDS011;39159;45.634;9.420;2023-02-10T16:13:22;40.72;;;20.50;;
53269;SDS011;39159;45.634;9.420;2023-02-10T16:15:48;43.42;;;21.25;;
53269;SDS011;39159;45.634;9.420;2023-02-10T16:18:18;40.17;;;21.48;;
53269;SDS011;39159;45.634;9.420;2023-02-10T16:20:46;40.55;;;21.40;;
53269;SDS011;39159;45.634;9.420;2023-02-10T16:23:12;36.38;;;20.20;;
53269;SDS011;39159;45.634;9.420;2023-02-10T16:25:39;35.42;;;19.55;;
53269;SDS011;39159;45.634;9.420;2023-02-10T16:28:05;35.20;;;19.50;;
53269;SDS011;39159;45.634;9.420;2023-02-10T16:30:31;39.05;;;19.73;;
53269;SDS011;39159;45.634;9.420;2023-02-10T16:32:58;35.42;;;20.10;;
53269;SDS011;39159;45.634;9.420;2023-02-10T16:35:23;36.13;;;18.48;;
53269;SDS011;39159;45.634;9.420;2023-02-10T16:37:51;43.03;;;18.77;;
53269;SDS011;39159;45.634;9.420;2023-02-10T16:40:28;35.85;;;18.95;;
53269;SDS011;39159;45.634;9.420;2023-02-10T16:42:56;40.55;;;20.90;;
53269;SDS011;39159;45.634;9.420;2023-02-10T16:45:23;38.30;;;20.33;;
53269;SDS011;39159;45.634;9.420;2023-02-10T16:47:49;42.53;;;23.17;;
53269;SDS011;39159;45.634;9.420;2023-02-10T16:52:57;46.50;;;23.00;;
53269;SDS011;39159;45.634;9.420;2023-02-10T16:55:23;41.83;;;21.77;;
53269;SDS011;39159;45.634;9.420;2023-02-10T16:57:49;48.00;;;22.85;;
53269;SDS011;39159;45.634;9.420;2023-02-10T17:00:15;47.72;;;23.42;;
53269;SDS011;39159;45.634;9.420;2023-02-10T17:02:42;45.25;;;24.05;;